Time;durP1;ratioP1;P1;durP2;ratioP2;P2;SDS_P1;SDS_P2;PMS_P1;PMS_P2;Temp;Humidity;BMP_temperature;BMP_pressure;BME280_temperature;BME280_humidity;BME280_pressure;Samples;Min_cycle;Max_cycle;Signal;HPM_P1;HPM_P2
2024/04/19 00:02:09;;;;;;;25.95;10.32;;;4.90;66.10;;;0.05;100.00;95854.88;5266366;27;20022;-48
2024/04/19 00:04:35;;;;;;;23.27;9.40;;;4.90;66.10;;;0.04;100.00;95852.47;5270712;27;20079;-51
2024/04/19 00:07:01;;;;;;;29.67;9.05;;;4.90;66.10;;;0.04;100.00;95841.97;5270832;27;20018;-47
2024/04/19 00:09:27;;;;;;;27.63;9.35;;;5.00;66.20;;;0.04;100.00;95847.22;5269302;27;20024;-46
2024/04/19 00:11:52;;;;;;;23.05;10.80;;;5.00;66.20;;;0.01;100.00;95848.41;5270748;27;20006;-46
2024/04/19 00:14:18;;;;;;;17.73;9.32;;;5.00;66.20;;;0.02;100.00;95849.22;5295981;27;20010;-49
2024/04/19 00:16:44;;;;;;;20.52;10.25;;;5.00;66.20;;;0.04;100.00;95845.41;5270959;27;20020;-47
2024/04/19 00:19:10;;;;;;;25.23;10.68;;;5.00;66.30;;;0.08;100.00;95849.25;5270707;27;20021;-51
2024/04/19 00:21:36;;;;;;;21.73;10.23;;;5.00;66.40;;;0.13;100.00;95848.69;5267338;27;20084;-47
2024/04/19 00:24:02;;;;;;;20.65;10.20;;;5.10;66.50;;;0.19;100.00;95850.53;5270762;27;20376;-46
2024/04/19 00:26:28;;;;;;;23.13;9.77;;;5.10;66.50;;;0.21;100.00;95857.19;5267244;27;20028;-46
2024/04/19 00:28:54;;;;;;;24.73;9.85;;;5.20;66.60;;;0.24;100.00;95853.38;5270291;27;20018;-46
2024/04/19 00:31:20;;;;;;;16.23;9.30;;;5.20;66.50;;;0.24;100.00;95856.00;5270298;27;20014;-46
2024/04/19 00:33:45;;;;;;;17.25;9.05;;;5.30;66.50;;;0.25;100.00;95860.22;5269432;27;20024;-47
2024/04/19 00:36:11;;;;;;;18.75;9.15;;;5.30;66.40;;;0.24;100.00;95858.63;5270861;27;20005;-49
2024/04/19 00:41:08;;;;;;;18.33;9.27;;;5.40;66.50;;;0.25;100.00;95854.19;5299362;27;20426;-49
2024/04/19 00:43:33;;;;;;;17.17;8.77;;;5.40;66.40;;;0.24;100.00;95861.22;5295369;26;20009;-52
2024/04/19 00:45:59;;;;;;;19.27;10.25;;;5.40;66.40;;;0.26;100.00;95856.63;5303057;26;20024;-49
2024/04/19 00:48:27;;;;;;;22.65;10.75;;;5.40;66.40;;;0.30;100.00;95851.78;5298745;26;20018;-49
2024/04/19 00:51:00;;;;;;;27.55;11.38;;;5.50;66.60;;;0.33;100.00;95852.22;5302168;26;20017;-53
2024/04/19 00:53:33;;;;;;;29.67;11.93;;;5.50;66.70;;;0.37;100.00;95836.91;5329326;26;20012;-48
2024/04/19 00:56:03;;;;;;;27.83;11.25;;;5.50;66.70;;;0.40;100.00;95837.31;5294145;26;20001;-52
2024/04/19 00:58:31;;;;;;;22.10;9.80;;;5.50;66.60;;;0.42;100.00;95830.09;5274973;26;20009;-52
2024/04/19 01:01:04;;;;;;;120.05;13.80;;;5.60;66.60;;;0.49;100.00;95834.56;5288813;27;20012;-50
2024/04/19 01:03:31;;;;;;;20.45;9.77;;;5.60;66.70;;;0.51;100.00;95833.34;5292640;26;20424;-50
2024/04/19 01:05:57;;;;;;;21.02;11.07;;;5.60;66.60;;;0.50;100.00;95829.09;5274521;27;20345;-49
2024/04/19 01:08:25;;;;;;;21.38;10.05;;;5.60;66.50;;;0.49;100.00;95827.50;5301151;26;20853;-51
2024/04/19 01:10:51;;;;;;;39.78;10.75;;;5.60;66.50;;;0.49;100.00;95826.69;5310149;26;20072;-50
2024/04/19 01:13:18;;;;;;;16.48;9.45;;;5.60;66.40;;;0.51;100.00;95822.06;5290726;26;20006;-50
2024/04/19 01:15:44;;;;;;;20.60;10.27;;;5.60;66.40;;;0.51;100.00;95822.88;5299246;27;20019;-51
2024/04/19 01:18:10;;;;;;;20.73;10.30;;;5.50;66.40;;;0.48;100.00;95823.25;5275273;27;20010;-52
2024/04/19 01:20:36;;;;;;;69.15;12.20;;;5.50;66.30;;;0.49;100.00;95818.81;5299173;27;20529;-49
2024/04/19 01:23:04;;;;;;;72.53;12.50;;;5.50;66.30;;;0.42;100.00;95814.34;5289415;26;20013;-48
2024/04/19 01:25:38;;;;;;;30.42;11.07;;;5.50;66.30;;;0.37;100.00;95808.88;5323516;26;20005;-53
2024/04/19 01:28:12;;;;;;;36.40;11.18;;;5.50;66.30;;;0.29;100.00;95813.50;5281226;27;20046;-50
2024/04/19 01:30:44;;;;;;;21.38;9.60;;;5.40;66.20;;;0.29;100.00;95809.06;5300190;27;20026;-52
2024/04/19 01:33:12;;;;;;;25.60;10.70;;;5.40;66.30;;;0.27;100.00;95803.19;5286093;27;20018;-50
2024/04/19 01:35:38;;;;;;;22.38;10.90;;;5.30;66.20;;;0.22;100.00;95803.00;5293783;27;20017;-51
2024/04/19 01:38:04;;;;;;;28.30;10.88;;;5.30;66.30;;;0.25;100.00;95799.16;5294280;26;20001;-48
2024/04/19 01:40:30;;;;;;;44.28;11.48;;;5.30;66.30;;;0.22;100.00;95803.78;5281796;26;20083;-51
2024/04/19 01:42:56;;;;;;;30.15;10.18;;;5.20;66.20;;;0.15;100.00;95797.69;5277263;27;20046;-56
2024/04/19 01:45:22;;;;;;;25.92;11.60;;;5.20;66.30;;;0.11;100.00;95798.28;5291658;27;20475;-52
2024/04/19 01:47:48;;;;;;;52.03;12.68;;;5.20;66.30;;;0.07;100.00;95797.06;5268784;26;20010;-53
2024/04/19 01:50:13;;;;;;;40.97;12.25;;;5.20;66.30;;;-0.03;100.00;95800.84;5274076;27;20034;-57
2024/04/19 01:52:39;;;;;;;32.60;12.63;;;5.10;67.10;;;-0.03;100.00;95800.84;5277138;27;20081;-55
2024/04/19 01:55:05;;;;;;;67.45;13.65;;;5.10;66.30;;;-0.04;100.00;95796.59;5321386;26;20020;-52
2024/04/19 01:57:31;;;;;;;61.28;11.82;;;5.00;66.30;;;-0.10;100.00;95786.06;5289655;27;20020;-52
2024/04/19 01:59:57;;;;;;;33.58;12.05;;;5.00;66.30;;;-0.16;100.00;95789.47;5293507;26;20002;-54
2024/04/19 02:02:24;;;;;;;49.17;11.93;;;5.00;66.30;;;-0.20;100.00;95790.84;5282390;26;20689;-49
2024/04/19 02:04:50;;;;;;;41.33;11.32;;;4.90;66.30;;;-0.25;100.00;95787.00;5275786;26;20410;-55
2024/04/19 02:07:16;;;;;;;35.78;11.88;;;4.90;66.30;;;-0.28;100.00;95790.00;5267161;27;20491;-57
2024/04/19 02:09:42;;;;;;;45.15;13.05;;;4.80;66.30;;;-0.28;100.00;95792.63;5274702;27;20002;-52
2024/04/19 02:12:08;;;;;;;55.53;12.73;;;4.80;66.40;;;-0.31;100.00;95789.59;5318949;26;20453;-49
2024/04/19 02:14:34;;;;;;;31.90;11.52;;;4.80;66.40;;;-0.33;100.00;95788.97;5298297;27;20001;-49
2024/04/19 02:17:01;;;;;;;32.22;11.57;;;4.80;66.40;;;-0.37;100.00;95792.97;5283576;26;20010;-51
2024/04/19 02:19:36;;;;;;;28.98;12.07;;;4.70;66.40;;;-0.39;100.00;95790.53;5277962;27;20022;-52
2024/04/19 02:22:06;;;;;;;50.00;12.07;;;4.70;66.50;;;-0.43;100.00;95786.69;5295828;27;20016;-54
2024/04/19 02:24:33;;;;;;;51.72;12.88;;;4.70;66.60;;;-0.45;100.00;95780.81;5267580;27;20021;-50
2024/04/19 02:27:00;;;;;;;37.85;12.50;;;4.70;66.60;;;-0.44;100.00;95786.84;5270915;27;20046;-48
2024/04/19 02:32:27;;;;;;;27.75;11.18;;;4.60;66.60;;;-0.48;100.00;95781.19;5260429;27;20488;-49
2024/04/19 02:34:53;;;;;;;36.90;12.32;;;4.60;66.70;;;-0.52;100.00;95778.16;5280964;26;20079;-49
2024/04/19 02:37:19;;;;;;;31.65;11.23;;;4.50;66.60;;;-0.55;100.00;95773.31;5270809;27;20021;-52
2024/04/19 02:39:45;;;;;;;39.10;12.90;;;4.50;66.70;;;-0.57;100.00;95770.06;5281694;27;20013;-52
2024/04/19 02:42:10;;;;;;;33.33;11.95;;;4.50;67.50;;;-0.59;100.00;95766.84;5301242;26;20560;-49
2024/04/19 02:44:36;;;;;;;32.70;11.80;;;4.50;66.70;;;-0.59;100.00;95763.41;5281810;26;20009;-48
2024/04/19 02:47:02;;;;;;;42.20;12.10;;;4.50;66.80;;;-0.61;100.00;95757.56;5275978;27;20720;-52
2024/04/19 02:49:28;;;;;;;47.78;12.13;;;4.50;66.80;;;-0.63;100.00;95759.53;5267926;27;20050;-50
2024/04/19 02:51:54;;;;;;;41.75;12.35;;;4.40;66.80;;;-0.66;100.00;95750.25;5326515;26;20001;-48
2024/04/19 02:54:20;;;;;;;35.72;12.77;;;4.40;66.80;;;-0.65;100.00;95749.28;5283718;27;20006;-52
2024/04/19 02:56:46;;;;;;;44.53;13.05;;;4.40;66.90;;;-0.67;100.00;95748.66;5281436;27;20009;-49
2024/04/19 02:59:11;;;;;;;38.92;11.85;;;4.40;66.90;;;-0.68;100.00;95738.41;5301715;26;20020;-49
2024/04/19 03:01:37;;;;;;;34.22;12.68;;;4.40;66.90;;;-0.69;100.00;95737.56;5300050;26;20442;-54
2024/04/19 03:04:03;;;;;;;40.65;12.82;;;4.30;66.90;;;-0.71;100.00;95737.75;5292044;27;20015;-51
2024/04/19 03:06:29;;;;;;;31.77;12.70;;;4.40;67.00;;;-0.72;100.00;95730.13;5300931;27;20009;-51
2024/04/19 03:08:55;;;;;;;38.08;12.68;;;4.40;67.00;;;-0.72;100.00;95735.34;5288414;26;20017;-52
2024/04/19 03:11:20;;;;;;;38.08;12.02;;;4.40;67.10;;;-0.71;100.00;95731.72;5267229;27;20353;-48
2024/04/19 03:13:49;;;;;;;62.38;14.55;;;4.40;67.10;;;-0.72;100.00;95730.13;5268531;27;20021;-51
2024/04/19 03:16:15;;;;;;;34.78;12.63;;;4.40;67.20;;;-0.71;100.00;95726.50;5284519;26;20450;-50
2024/04/19 03:18:42;;;;;;;40.00;13.85;;;4.40;67.20;;;-0.68;100.00;95727.94;5301665;26;20005;-51
2024/04/19 03:21:07;;;;;;;36.38;13.65;;;4.40;67.20;;;-0.73;100.00;95725.88;5286140;26;20043;-49
2024/04/19 03:23:33;;;;;;;42.97;14.43;;;4.40;67.20;;;-0.68;100.00;95717.47;5277288;26;20006;-50
2024/04/19 03:26:00;;;;;;;39.97;13.48;;;4.40;68.10;;;-0.62;100.00;95711.47;5271244;27;20009;-48
2024/04/19 03:28:28;;;;;;;36.47;13.80;;;4.50;67.40;;;-0.59;100.00;95706.66;5280258;26;20094;-50
2024/04/19 03:30:53;;;;;;;36.38;13.05;;;4.50;67.40;;;-0.58;100.00;95707.47;5277752;26;20013;-51
2024/04/19 03:33:19;;;;;;;38.90;12.93;;;4.50;67.40;;;-0.54;100.00;95706.06;5287775;27;20009;-52
2024/04/19 03:35:45;;;;;;;37.30;13.48;;;4.60;67.40;;;-0.54;100.00;95709.50;5292232;26;20041;-50
2024/04/19 03:38:14;;;;;;;39.97;13.18;;;4.60;67.50;;;-0.48;100.00;95700.88;5275790;27;20660;-49
2024/04/19 03:40:53;;;;;;;34.25;13.38;;;4.60;67.50;;;-0.44;100.00;95701.28;5280004;27;20361;-52
2024/04/19 03:43:19;;;;;;;40.15;13.77;;;4.70;67.50;;;-0.39;100.00;95708.59;5281354;27;20001;-52
2024/04/19 03:45:45;;;;;;;38.30;14.45;;;4.70;67.50;;;-0.33;100.00;95706.00;5281140;27;20364;-51
2024/04/19 03:48:12;;;;;;;35.15;14.05;;;4.80;67.60;;;-0.29;100.00;95707.22;5296775;27;20016;-51
2024/04/19 03:50:39;;;;;;;38.28;14.63;;;4.80;67.70;;;-0.23;100.00;95710.88;5271143;27;20006;-51
2024/04/19 03:53:05;;;;;;;35.83;15.55;;;4.90;67.70;;;-0.17;100.00;95704.88;5278995;27;20688;-52
2024/04/19 03:55:32;;;;;;;43.47;15.13;;;5.00;67.80;;;-0.10;100.00;95710.94;5288384;27;20006;-52
2024/04/19 03:57:58;;;;;;;43.72;15.95;;;5.00;67.80;;;-0.04;100.00;95709.34;5286565;27;20013;-50
2024/04/19 04:00:25;;;;;;;37.25;15.23;;;5.10;67.80;;;0.03;100.00;95702.31;5284673;27;20001;-53
2024/04/19 04:02:52;;;;;;;139.10;17.08;;;5.20;67.80;;;0.08;100.00;95707.00;5302708;26;20005;-49
2024/04/19 04:05:18;;;;;;;70.07;14.63;;;5.20;67.80;;;0.09;100.00;95703.34;5302593;27;20005;-53
2024/04/19 04:07:45;;;;;;;43.30;13.80;;;5.20;67.70;;;0.13;100.00;95709.84;5270818;27;20018;-52
2024/04/19 04:10:11;;;;;;;33.22;12.63;;;5.30;67.60;;;0.14;100.00;95696.53;5299537;26;20078;-51
2024/04/19 04:12:37;;;;;;;48.17;13.52;;;5.30;67.50;;;0.15;100.00;95702.56;5286908;26;20010;-49
2024/04/19 04:15:04;;;;;;;46.90;13.20;;;5.30;68.20;;;0.14;100.00;95700.97;5286119;26;20006;-51
2024/04/19 04:17:30;;;;;;;34.67;12.98;;;5.30;67.40;;;0.15;100.00;95697.34;5303785;26;20020;-55
2024/04/19 04:19:55;;;;;;;41.75;14.23;;;5.30;67.40;;;0.17;100.00;95698.75;5291457;27;22487;-50
2024/04/19 04:22:21;;;;;;;40.67;14.02;;;5.30;67.40;;;0.21;100.00;95705.22;5303432;27;20052;-49
2024/04/19 04:24:47;;;;;;;31.63;13.13;;;5.30;67.50;;;0.26;100.00;95702.03;5303681;26;20013;-49
2024/04/19 04:27:13;;;;;;;34.45;14.70;;;5.40;67.50;;;0.29;100.00;95706.88;5302368;26;20004;-52
2024/04/19 04:29:39;;;;;;;37.50;14.95;;;5.40;67.60;;;0.33;100.00;95709.91;5296261;26;20010;-51
2024/04/19 04:32:06;;;;;;;45.05;16.38;;;5.50;67.70;;;0.36;100.00;95706.88;5275320;27;20013;-51
2024/04/19 04:34:31;;;;;;;46.15;17.75;;;5.50;67.80;;;0.44;100.00;95711.97;5298238;26;20020;-51
2024/04/19 04:36:57;;;;;;;46.58;17.50;;;5.50;67.90;;;0.49;100.00;95708.72;5294919;26;20481;-51
2024/04/19 04:39:23;;;;;;;52.38;17.25;;;5.60;67.90;;;0.53;100.00;95707.31;5282553;27;20005;-52
2024/04/19 04:41:49;;;;;;;46.60;17.70;;;5.70;68.00;;;0.57;100.00;95704.13;5291162;27;20427;-56
2024/04/19 04:44:15;;;;;;;50.38;19.30;;;5.70;67.90;;;0.63;100.00;95710.38;5283559;27;20020;-52
2024/04/19 04:46:41;;;;;;;53.05;18.95;;;5.80;67.90;;;0.69;100.00;95709.59;5282165;26;20010;-55
2024/04/19 04:49:09;;;;;;;48.95;18.63;;;5.80;67.90;;;0.75;100.00;95708.75;5298020;26;20005;-57
2024/04/19 04:51:36;;;;;;;49.58;18.25;;;5.90;68.00;;;0.81;100.00;95710.59;5281849;26;20002;-54
2024/04/19 04:54:02;;;;;;;52.58;17.08;;;5.90;68.00;;;0.86;100.00;95718.69;5302880;26;20358;-49
2024/04/19 04:56:28;;;;;;;46.00;17.85;;;6.00;68.00;;;0.89;100.00;95709.59;5298974;26;20344;-56
2024/04/19 04:58:54;;;;;;;45.53;17.42;;;6.10;68.00;;;0.94;100.00;95717.69;5303561;26;20009;-51
2024/04/19 05:01:19;;;;;;;47.50;16.20;;;6.10;67.90;;;0.96;100.00;95715.66;5278941;26;20077;-50
2024/04/19 05:03:49;;;;;;;42.10;15.63;;;6.10;67.90;;;0.99;100.00;95717.06;5289354;27;20029;-53
2024/04/19 05:06:16;;;;;;;44.95;16.08;;;6.20;67.80;;;1.02;100.00;95727.97;5298824;27;20022;-53
2024/04/19 05:08:43;;;;;;;43.90;16.77;;;6.20;67.80;;;1.06;100.00;95736.25;5271030;26;20033;-52
2024/04/19 05:11:08;;;;;;;45.72;17.42;;;6.30;67.90;;;1.07;100.00;95725.56;5269264;27;20056;-51
2024/04/19 05:13:34;;;;;;;47.47;17.17;;;6.30;67.80;;;1.07;100.00;95730.00;5269013;27;20021;-52
2024/04/19 05:16:02;;;;;;;42.15;16.60;;;6.30;67.80;;;1.12;100.00;95724.94;5288571;27;20487;-54
2024/04/19 05:18:28;;;;;;;43.35;16.13;;;6.40;67.80;;;1.12;100.00;95736.25;5302840;26;20015;-55
2024/04/19 05:20:54;;;;;;;45.00;16.20;;;6.40;67.70;;;1.15;100.00;95724.53;5284277;27;20006;-51
2024/04/19 05:23:20;;;;;;;41.15;16.33;;;6.40;67.70;;;1.18;100.00;95721.53;5287293;27;20360;-54
2024/04/19 05:25:46;;;;;;;43.92;17.25;;;6.50;67.70;;;1.22;100.00;95719.28;5269148;27;20010;-56
2024/04/19 05:28:12;;;;;;;39.45;15.70;;;6.50;67.60;;;1.27;100.00;95719.50;5303145;26;20005;-54
2024/04/19 05:30:38;;;;;;;34.80;15.05;;;6.60;67.70;;;1.32;100.00;95719.72;5283786;26;20392;-55
2024/04/19 05:33:05;;;;;;;38.00;15.23;;;6.60;67.60;;;1.36;100.00;95719.09;5287814;27;20419;-56
2024/04/19 05:35:32;;;;;;;40.10;15.50;;;6.70;67.60;;;1.39;100.00;95725.75;5277305;26;20009;-57
2024/04/19 05:37:59;;;;;;;39.35;14.63;;;6.70;67.50;;;1.42;100.00;95717.47;5271170;27;19998;-57
2024/04/19 05:40:26;;;;;;;38.05;14.77;;;6.80;67.50;;;1.45;100.00;95724.16;5284553;26;20005;-56
2024/04/19 05:42:53;;;;;;;37.35;14.25;;;6.80;67.40;;;1.48;100.00;95718.47;5291507;27;20002;-53
2024/04/19 05:45:20;;;;;;;51.33;15.82;;;6.80;67.40;;;1.51;100.00;95724.13;5291417;26;20055;-55
2024/04/19 05:47:47;;;;;;;38.78;14.60;;;6.90;67.40;;;1.54;100.00;95731.59;5268455;27;20010;-52
2024/04/19 05:50:13;;;;;;;37.78;14.40;;;6.90;67.40;;;1.59;100.00;95723.09;5273933;27;20005;-51
2024/04/19 05:52:40;;;;;;;36.97;14.70;;;7.00;67.30;;;1.59;100.00;95731.78;5271602;27;20009;-56
2024/04/19 05:55:07;;;;;;;38.03;14.98;;;7.00;67.30;;;1.62;100.00;95730.56;5281519;27;20353;-53
2024/04/19 05:57:34;;;;;;;40.60;16.00;;;7.10;67.30;;;1.63;100.00;95726.94;5281075;26;20476;-57
2024/04/19 06:00:02;;;;;;;36.40;14.30;;;7.10;67.30;;;1.69;100.00;95733.19;5286110;27;20390;-54
2024/04/19 06:02:27;;;;;;;39.90;14.65;;;7.10;67.20;;;1.68;100.00;95735.00;5285653;27;20001;-56
2024/04/19 06:04:53;;;;;;;39.60;15.25;;;7.20;67.20;;;1.69;100.00;95741.84;5291389;27;20346;-54
2024/04/19 06:07:22;;;;;;;36.83;15.43;;;7.20;67.10;;;1.72;100.00;95732.75;5267931;27;20014;-55
2024/04/19 06:09:48;;;;;;;40.65;14.93;;;7.20;67.10;;;1.78;100.00;95742.44;5297441;27;20005;-54
2024/04/19 06:12:15;;;;;;;39.53;15.68;;;7.20;67.10;;;1.82;100.00;95741.06;5272578;26;20356;-55
2024/04/19 06:14:41;;;;;;;33.55;14.18;;;7.30;67.20;;;1.88;100.00;95739.41;5274593;27;20419;-53
2024/04/19 06:17:07;;;;;;;35.97;14.32;;;7.30;67.20;;;1.92;100.00;95733.53;5298933;27;20001;-56
2024/04/19 06:19:32;;;;;;;31.35;14.18;;;7.40;67.30;;;1.96;100.00;95734.72;5302078;26;20029;-51
2024/04/19 06:21:58;;;;;;;32.40;13.95;;;7.50;67.30;;;1.97;100.00;95730.28;5301049;26;20091;-54
2024/04/19 06:24:24;;;;;;;34.45;13.50;;;7.50;67.20;;;2.04;100.00;95737.16;5272194;27;20009;-53
2024/04/19 06:26:50;;;;;;;31.52;13.07;;;7.60;67.10;;;2.08;100.00;95725.19;5283722;27;20005;-53
2024/04/19 06:29:17;;;;;;;27.55;13.23;;;7.70;67.10;;;2.07;100.00;95725.41;5301894;26;19997;-53
2024/04/19 06:31:44;;;;;;;24.98;10.63;;;7.80;67.10;;;2.07;100.00;95728.84;5300883;26;20009;-49
2024/04/19 06:34:10;;;;;;;23.60;11.57;;;7.80;67.00;;;2.09;100.00;95732.06;5301595;26;20020;-50
2024/04/19 06:36:36;;;;;;;27.65;11.32;;;7.90;67.00;;;2.15;100.00;95732.25;5300702;26;20391;-56
2024/04/19 06:39:07;;;;;;;22.92;10.20;;;8.00;67.00;;;2.22;100.00;95733.84;5290143;26;20021;-52
2024/04/19 06:41:34;;;;;;;21.63;9.93;;;8.00;67.00;;;2.33;100.00;95737.66;5296658;27;20023;-52
2024/04/19 06:44:00;;;;;;;18.55;10.35;;;8.10;67.00;;;2.42;100.00;95735.59;5276119;27;20005;-52
2024/04/19 06:46:26;;;;;;;21.83;10.45;;;8.10;67.00;;;2.49;100.00;95731.09;5275923;27;20679;-56
2024/04/19 06:48:53;;;;;;;18.38;9.90;;;8.20;67.10;;;2.50;100.00;95725.63;5267917;27;20018;-52
2024/04/19 06:51:19;;;;;;;17.88;9.90;;;8.20;67.00;;;2.46;100.00;95721.81;5271270;27;20013;-56
2024/04/19 06:53:45;;;;;;;19.40;9.68;;;8.30;66.90;;;2.53;100.00;95714.69;5308953;21;20005;-50
2024/04/19 06:56:11;;;;;;;17.33;9.45;;;8.30;66.90;;;2.58;100.00;95710.63;5296599;26;20024;-50
2024/04/19 06:58:36;;;;;;;21.00;10.18;;;8.40;66.80;;;2.66;100.00;95718.25;5300961;27;20047;-49
2024/04/19 07:01:06;;;;;;;16.88;9.80;;;8.50;66.80;;;2.75;100.00;95712.53;5300725;27;20005;-48
2024/04/19 07:03:34;;;;;;;18.83;10.48;;;8.60;66.80;;;2.86;100.00;95712.88;5280629;27;20006;-49
2024/04/19 07:06:08;;;;;;;19.05;10.73;;;8.70;66.80;;;3.00;100.00;95714.41;5283060;27;20013;-49
2024/04/19 07:08:34;;;;;;;17.88;9.52;;;8.80;66.90;;;3.08;100.00;95708.88;5289676;27;20009;-50
2024/04/19 07:11:02;;;;;;;19.35;9.80;;;8.90;66.90;;;3.07;100.00;95701.19;5282963;27;20367;-49
2024/04/19 07:13:29;;;;;;;18.15;10.10;;;8.90;66.80;;;3.19;100.00;95702.09;5289866;27;20013;-50
2024/04/19 07:15:56;;;;;;;21.42;9.88;;;9.10;66.70;;;3.30;100.00;95698.78;5287147;27;20392;-48
2024/04/19 07:18:23;;;;;;;15.75;9.57;;;9.20;66.70;;;3.36;100.00;95699.75;5284577;27;20419;-49
2024/04/19 07:20:53;;;;;;;15.90;9.85;;;9.40;66.60;;;3.46;100.00;95700.84;5299709;27;20087;-51
2024/04/19 07:23:22;;;;;;;15.13;9.13;;;9.60;66.60;;;3.57;100.00;95701.16;5284906;27;20440;-49
2024/04/19 07:25:48;;;;;;;17.05;8.85;;;9.70;66.40;;;3.75;100.00;95697.75;5299181;27;20028;-49
2024/04/19 07:28:16;;;;;;;13.60;8.63;;;9.80;66.40;;;3.72;100.00;95696.34;5281612;27;20538;-50
2024/04/19 07:30:43;;;;;;;12.90;8.75;;;10.00;66.30;;;3.72;100.00;95686.63;5290960;27;20104;-49
2024/04/19 07:33:09;;;;;;;12.88;8.55;;;10.10;66.00;;;3.90;100.00;95690.28;5293247;27;20027;-49
2024/04/19 07:35:37;;;;;;;12.73;7.85;;;10.20;65.80;;;3.98;100.00;95691.81;5290536;27;20512;-51
2024/04/19 07:38:04;;;;;;;12.43;8.30;;;10.30;65.70;;;4.06;100.00;95686.25;5293405;27;20005;-50
2024/04/19 07:40:32;;;;;;;10.75;7.03;;;10.40;65.50;;;4.03;100.00;95684.88;5273153;27;20020;-49
2024/04/19 07:42:58;;;;;;;10.07;7.40;;;10.50;65.20;;;4.01;100.00;95681.66;5278209;27;20019;-50
2024/04/19 07:45:24;;;;;;;9.30;7.00;;;10.60;64.80;;;4.03;100.00;95681.44;5292029;27;20017;-49
2024/04/19 07:47:53;;;;;;;8.52;6.38;;;10.70;64.40;;;4.08;100.00;95671.03;5300575;27;20411;-49
2024/04/19 07:50:20;;;;;;;9.70;6.45;;;10.70;63.80;;;4.20;100.00;95679.81;5290512;27;20434;-52
2024/04/19 07:52:50;;;;;;;7.75;5.88;;;10.80;63.60;;;4.24;100.00;95675.69;5272652;27;20009;-50
2024/04/19 07:55:17;;;;;;;6.43;5.30;;;10.90;63.10;;;4.31;100.00;95676.41;5291947;27;20005;-50
2024/04/19 07:57:50;;;;;;;7.40;5.10;;;10.90;62.70;;;4.33;100.00;95676.22;5298630;27;20013;-48
2024/04/19 08:00:21;;;;;;;9.15;5.70;;;10.90;62.00;;;4.48;100.00;95683.69;5270473;27;20360;-49
2024/04/19 08:02:47;;;;;;;7.10;5.68;;;11.00;61.90;;;4.43;100.00;95689.66;5280388;27;20009;-49
2024/04/19 08:05:14;;;;;;;7.68;5.57;;;11.00;61.60;;;4.53;100.00;95673.28;5299974;27;20431;-49
2024/04/19 08:07:39;;;;;;;7.38;5.05;;;11.00;61.20;;;4.63;100.00;95682.25;5299280;27;20021;-49
2024/04/19 08:10:07;;;;;;;7.07;5.45;;;11.10;61.10;;;4.69;100.00;95675.28;5281062;27;20083;-51
2024/04/19 08:12:32;;;;;;;8.02;5.38;;;11.20;60.80;;;4.66;99.30;95667.81;5271293;27;20008;-50
2024/04/19 08:14:58;;;;;;;5.40;4.68;;;11.30;61.20;;;4.52;97.84;95669.06;5274815;27;20095;-49
2024/04/19 08:17:24;;;;;;;7.70;4.35;;;11.30;59.50;;;4.61;96.72;95660.59;5278265;27;20013;-49
2024/04/19 08:19:50;;;;;;;5.28;4.40;;;11.30;59.20;;;4.58;96.96;95660.25;5282400;27;20013;-50
2024/04/19 08:22:16;;;;;;;5.32;4.30;;;11.40;58.60;;;4.71;96.19;95659.25;5279121;26;20013;-48
2024/04/19 08:24:42;;;;;;;7.57;4.80;;;11.40;58.60;;;4.69;95.32;95641.00;5288806;27;20567;-50
2024/04/19 08:27:10;;;;;;;5.40;4.00;;;11.50;58.30;;;4.80;94.50;95628.88;5279826;27;20010;-49
2024/04/19 08:29:37;;;;;;;4.82;4.13;;;11.60;57.90;;;4.81;91.70;95612.00;5281848;27;20021;-50
2024/04/19 08:32:09;;;;;;;6.47;4.35;;;11.70;57.20;;;4.80;92.93;95619.09;5284143;27;20009;-51
2024/04/19 08:34:35;;;;;;;5.10;4.00;;;11.80;56.70;;;5.06;93.79;95625.78;5282792;27;20005;-50
2024/04/19 08:37:04;;;;;;;5.90;4.22;;;11.90;56.80;;;5.28;91.28;95626.03;5279091;27;20009;-49
2024/04/19 08:39:29;;;;;;;5.25;3.92;;;12.10;56.60;;;5.31;88.67;95627.41;5287921;27;20024;-49
2024/04/19 08:42:08;;;;;;;5.25;3.88;;;12.30;56.20;;;5.53;88.75;95636.34;5282017;27;20009;-48
2024/04/19 08:44:34;;;;;;;3.95;3.03;;;12.50;55.80;;;5.72;84.90;95625.66;5279090;26;20472;-50
2024/04/19 08:47:06;;;;;;;4.55;4.00;;;12.70;55.60;;;5.85;84.76;95643.91;5280098;27;20036;-50
2024/04/19 08:49:36;;;;;;;4.47;3.42;;;12.90;55.00;;;5.82;82.49;95639.06;5281469;27;20009;-49
2024/04/19 08:52:03;;;;;;;4.72;3.75;;;13.10;54.40;;;5.83;82.19;95637.22;5283283;27;20006;-49
2024/04/19 08:54:31;;;;;;;4.13;3.28;;;13.20;53.80;;;6.02;81.56;95636.88;5283014;27;20001;-51
2024/04/19 08:56:59;;;;;;;4.95;3.42;;;13.30;53.40;;;6.19;80.66;95626.38;5252931;27;20279;-50
2024/04/19 08:59:25;;;;;;;5.60;4.07;;;13.50;53.10;;;6.32;78.95;95617.34;5282461;27;20014;-52
2024/04/19 09:01:51;;;;;;;6.05;3.80;;;13.60;52.80;;;6.51;78.74;95627.72;5277294;26;20002;-49
2024/04/19 09:04:17;;;;;;;4.05;3.60;;;13.80;52.30;;;6.47;77.58;95614.97;5278907;27;20024;-51
2024/04/19 09:06:43;;;;;;;4.45;3.17;;;13.90;51.30;;;6.55;75.49;95615.63;5282689;27;20005;-48
2024/04/19 09:09:10;;;;;;;4.00;3.35;;;13.90;51.00;;;6.51;75.78;95617.16;5276759;27;20042;-49
2024/04/19 09:11:40;;;;;;;7.00;3.20;;;13.90;50.40;;;6.54;75.94;95619.31;5282592;26;20100;-51
2024/04/19 09:14:06;;;;;;;3.90;3.10;;;13.90;50.00;;;6.41;74.22;95613.28;5275513;27;20378;-49
2024/04/19 09:16:33;;;;;;;3.70;3.30;;;14.10;49.50;;;6.37;70.18;95612.16;5274318;27;20073;-53
2024/04/19 09:18:59;;;;;;;3.00;2.70;;;14.10;48.70;;;6.22;72.34;95619.81;5280511;27;20013;-53
2024/04/19 09:21:27;;;;;;;4.07;2.90;;;14.20;48.00;;;6.43;73.57;95607.75;5279603;27;20469;-49
2024/04/19 09:23:57;;;;;;;3.85;3.03;;;14.30;47.90;;;6.51;75.71;95610.00;5279488;27;20053;-48
2024/04/19 09:26:23;;;;;;;3.53;3.22;;;14.30;47.70;;;6.61;72.48;95610.19;5286172;27;20557;-51
2024/04/19 09:28:52;;;;;;;4.25;3.38;;;14.20;47.90;;;6.29;74.50;95606.44;5282513;27;20376;-52
2024/04/19 09:31:19;;;;;;;8.18;3.60;;;14.30;47.20;;;6.46;73.83;95597.50;5286265;27;20005;-50
2024/04/19 09:33:45;;;;;;;6.28;3.92;;;14.40;47.30;;;6.42;72.37;95596.34;5278401;26;20020;-52
2024/04/19 09:36:18;;;;;;;7.00;3.95;;;14.40;46.90;;;6.43;74.47;95605.13;5287610;27;21211;-48
2024/04/19 09:38:46;;;;;;;6.10;3.92;;;14.40;46.80;;;6.21;74.72;95604.97;5283599;27;20684;-51
2024/04/19 09:41:15;;;;;;;5.05;3.83;;;14.30;46.80;;;6.39;76.56;95606.59;5280009;27;20553;-49
2024/04/19 09:43:50;;;;;;;4.65;3.85;;;14.20;47.00;;;6.38;74.35;95573.25;5285325;27;20048;-50
2024/04/19 09:46:29;;;;;;;4.68;3.88;;;14.10;47.10;;;6.52;74.88;95576.41;5279791;27;20516;-49
2024/04/19 09:49:03;;;;;;;3.92;3.45;;;14.10;47.10;;;6.50;72.62;95574.00;5284213;27;20090;-51
2024/04/19 09:51:48;;;;;;;5.85;4.18;;;14.20;46.90;;;6.62;74.63;95566.81;5285798;27;20013;-48
2024/04/19 09:54:20;;;;;;;5.35;3.85;;;14.10;46.70;;;6.52;75.16;95569.28;5278559;27;20019;-51
2024/04/19 09:56:57;;;;;;;4.57;3.75;;;14.00;47.00;;;6.51;73.67;95554.44;5284384;27;20005;-50
2024/04/19 09:59:24;;;;;;;6.13;3.88;;;13.80;47.20;;;6.37;72.92;95551.28;5280929;27;20023;-52
2024/04/19 10:01:52;;;;;;;3.95;3.40;;;13.60;47.30;;;6.00;74.40;95561.47;5282858;27;20056;-48
2024/04/19 10:04:20;;;;;;;3.78;3.22;;;13.40;47.40;;;5.87;76.25;95559.88;5285376;27;20017;-52
2024/04/19 10:06:48;;;;;;;5.97;4.20;;;13.10;47.70;;;5.88;77.12;95556.19;5278534;27;20493;-49
2024/04/19 10:09:25;;;;;;;4.53;3.40;;;12.80;48.20;;;5.65;77.65;95543.84;5272554;27;20018;-47
2024/04/19 10:11:53;;;;;;;5.13;3.58;;;12.50;48.70;;;5.59;78.21;95536.88;5271508;27;20041;-47
2024/04/19 10:14:21;;;;;;;4.32;3.30;;;12.30;49.60;;;5.60;78.49;95545.59;5277794;26;20016;-50
2024/04/19 10:16:47;;;;;;;3.75;3.03;;;12.10;49.40;;;5.59;78.74;95536.06;5271678;27;20634;-47
2024/04/19 10:19:15;;;;;;;5.00;3.55;;;11.90;49.70;;;5.43;75.71;95519.91;5278113;26;20752;-52
2024/04/19 10:21:42;;;;;;;7.00;3.90;;;11.90;50.00;;;5.41;77.82;95527.25;5249675;27;20020;-49